Time;durP1;ratioP1;P1;durP2;ratioP2;P2;SDS_P1;SDS_P2;PMS_P1;PMS_P2;Temp;Humidity;BMP_temperature;BMP_pressure;BME280_temperature;BME280_humidity;BME280_pressure;Samples;Min_cycle;Max_cycle;Signal;HPM_P1;HPM_P2
2022/04/02 00:01:28;;;;;;;4.47;2.03;;;-0.10;99.90;;;;;;5049292;28;20048;-88
2022/04/02 00:03:54;;;;;;;7.60;2.13;;;-0.10;99.90;;;;;;5048927;28;20040;-88
2022/04/02 00:06:20;;;;;;;7.38;2.58;;;-0.10;99.90;;;;;;5033104;28;20059;-88
2022/04/02 00:08:45;;;;;;;6.50;2.58;;;-0.20;99.90;;;;;;5032775;28;20170;-87
2022/04/02 00:11:11;;;;;;;6.57;2.40;;;-0.20;99.90;;;;;;5029453;28;20056;-87
2022/04/02 00:13:38;;;;;;;6.78;2.10;;;-0.20;99.90;;;;;;5046169;28;20037;-87
2022/04/02 00:16:05;;;;;;;6.03;2.20;;;-0.10;99.90;;;;;;5041176;28;20119;-87
2022/04/02 00:18:34;;;;;;;8.05;2.45;;;-0.20;99.90;;;;;;5025285;28;20056;-88
2022/04/02 00:20:59;;;;;;;7.57;2.35;;;-0.20;99.90;;;;;;5038594;28;20037;-87
2022/04/02 00:23:40;;;;;;;8.48;2.47;;;-0.20;99.90;;;;;;5049960;28;20539;-87
2022/04/02 00:26:12;;;;;;;9.65;2.75;;;0.90;99.90;;;;;;5053766;28;20040;-87
2022/04/02 00:28:40;;;;;;;6.88;2.58;;;-0.20;99.90;;;;;;5071620;28;20051;-87
2022/04/02 00:31:08;;;;;;;7.03;2.50;;;-0.20;99.90;;;;;;5045188;28;20045;-87
2022/04/02 00:33:34;;;;;;;6.72;2.90;;;0.70;99.90;;;;;;5051124;28;20036;-87
2022/04/02 00:36:01;;;;;;;6.47;2.70;;;-0.30;99.90;;;;;;5043136;28;20040;-87
2022/04/02 00:38:27;;;;;;;8.68;2.75;;;-0.30;99.90;;;;;;5036607;28;20040;-87
2022/04/02 00:40:53;;;;;;;6.13;2.50;;;-0.30;99.90;;;;;;5053266;28;20044;-86
2022/04/02 00:43:27;;;;;;;7.57;2.80;;;-0.30;99.90;;;;;;5049589;28;20047;-86
2022/04/02 00:45:54;;;;;;;7.20;2.42;;;-0.40;99.90;;;;;;5030347;28;20052;-85
2022/04/02 00:48:21;;;;;;;6.20;2.53;;;-0.40;99.90;;;;;;5064874;28;20036;-87
2022/04/02 00:50:52;;;;;;;6.60;2.50;;;-0.40;99.90;;;;;;5034227;28;20059;-86
2022/04/02 00:53:18;;;;;;;7.18;2.65;;;-0.40;99.90;;;;;;5050188;28;20469;-86
2022/04/02 00:55:45;;;;;;;7.45;2.78;;;-0.40;99.90;;;;;;5061554;28;20754;-87
2022/04/02 00:58:11;;;;;;;9.60;2.45;;;-0.50;99.90;;;;;;5077391;28;20043;-87
2022/04/02 01:00:39;;;;;;;6.00;2.70;;;-0.50;99.90;;;;;;5071218;28;20146;-87
2022/04/02 01:03:05;;;;;;;7.40;2.67;;;-0.50;99.90;;;;;;5036392;28;20044;-87
2022/04/02 01:05:33;;;;;;;7.70;2.72;;;-0.50;99.90;;;;;;5035753;28;20044;-87
2022/04/02 01:08:01;;;;;;;8.98;2.92;;;-0.50;99.90;;;;;;5041342;28;20044;-87
2022/04/02 01:10:28;;;;;;;6.13;2.85;;;-0.60;99.90;;;;;;5039434;28;20052;-87
2022/04/02 01:12:59;;;;;;;8.43;3.22;;;-0.60;99.90;;;;;;5030701;28;20090;-87
2022/04/02 01:15:25;;;;;;;9.75;3.20;;;-0.60;99.90;;;;;;5037520;28;20048;-87
2022/04/02 01:17:52;;;;;;;9.63;2.80;;;-0.60;99.90;;;;;;5053781;28;20049;-87
2022/04/02 01:20:18;;;;;;;9.35;2.72;;;-0.60;99.90;;;;;;5039631;28;20047;-87
2022/04/02 01:22:48;;;;;;;7.93;3.00;;;-0.60;99.90;;;;;;5080442;28;20077;-87
2022/04/02 01:25:13;;;;;;;10.48;3.30;;;-0.70;99.90;;;;;;5057324;28;20476;-86
2022/04/02 01:27:39;;;;;;;8.50;2.78;;;-0.70;99.90;;;;;;5053872;28;20044;-87
2022/04/02 01:30:06;;;;;;;6.95;3.00;;;0.50;99.90;;;;;;5057548;28;20036;-87
2022/04/02 01:32:32;;;;;;;8.63;3.72;;;-0.80;99.90;;;;;;5076441;28;20123;-87
2022/04/02 01:34:58;;;;;;;8.18;3.42;;;-0.50;99.90;;;;;;5059614;28;20048;-87
2022/04/02 01:37:24;;;;;;;6.65;2.65;;;-0.80;99.90;;;;;;5069316;28;20804;-87
2022/04/02 01:39:49;;;;;;;6.43;2.53;;;0.30;99.90;;;;;;5044549;28;20045;-87
2022/04/02 01:42:20;;;;;;;9.68;3.10;;;-0.80;99.90;;;;;;5063828;28;20262;-87
2022/04/02 01:44:51;;;;;;;6.35;2.83;;;-0.80;99.90;;;;;;5075181;28;20189;-87
2022/04/02 01:47:20;;;;;;;8.25;3.78;;;-0.80;99.90;;;;;;5052958;28;21293;-86
2022/04/02 01:49:47;;;;;;;11.07;3.53;;;-0.90;99.90;;;;;;5073793;28;20028;-87
2022/04/02 01:52:16;;;;;;;9.88;3.30;;;-0.10;99.90;;;;;;5093441;28;20040;-87
2022/04/02 01:54:42;;;;;;;10.93;3.10;;;-0.90;99.90;;;;;;5035025;28;20105;-87
2022/04/02 01:57:08;;;;;;;8.02;2.92;;;-0.90;99.90;;;;;;5053690;28;20046;-88
2022/04/02 01:59:34;;;;;;;8.02;2.90;;;-1.00;99.90;;;;;;5070528;28;20455;-86
2022/04/02 02:02:00;;;;;;;8.05;2.95;;;-0.90;99.90;;;;;;5036671;28;20041;-86
2022/04/02 02:04:27;;;;;;;6.45;2.72;;;-1.00;99.90;;;;;;5063504;28;20032;-86
2022/04/02 02:06:53;;;;;;;8.30;3.25;;;-1.00;99.90;;;;;;5040054;28;20036;-87
2022/04/02 02:09:19;;;;;;;8.75;2.95;;;-1.00;99.90;;;;;;5040977;28;20084;-87
2022/04/02 02:11:44;;;;;;;6.70;2.90;;;-1.00;99.90;;;;;;5068835;28;20056;-87
2022/04/02 02:14:10;;;;;;;6.22;2.47;;;-1.00;99.90;;;;;;5071729;28;20066;-87
2022/04/02 02:16:36;;;;;;;5.82;2.35;;;-1.00;99.90;;;;;;5035716;28;20037;-87
2022/04/02 02:19:02;;;;;;;9.43;2.60;;;-1.00;99.90;;;;;;5067661;28;20413;-86
2022/04/02 02:21:27;;;;;;;6.70;2.88;;;-1.10;99.90;;;;;;5049796;28;20044;-87
2022/04/02 02:23:53;;;;;;;8.90;2.90;;;-1.10;99.90;;;;;;5058746;28;20044;-87
2022/04/02 02:26:19;;;;;;;7.80;3.13;;;-1.10;99.90;;;;;;5056592;28;20080;-87
2022/04/02 02:28:45;;;;;;;7.22;2.78;;;-1.10;99.90;;;;;;5051355;28;20595;-86
2022/04/02 02:31:11;;;;;;;8.32;3.10;;;-1.10;99.90;;;;;;5060272;28;20043;-87
2022/04/02 02:36:21;;;;;;;10.25;2.75;;;-1.20;99.90;;;;;;5052700;28;20302;-86
2022/04/02 02:38:46;;;;;;;10.60;2.83;;;-1.20;99.90;;;;;;5055434;28;20060;-87
2022/04/02 02:41:12;;;;;;;6.43;2.45;;;-1.20;99.90;;;;;;5052210;28;20044;-86
2022/04/02 02:43:38;;;;;;;7.57;2.67;;;-1.20;99.90;;;;;;5026808;28;20096;-85
2022/04/02 02:46:05;;;;;;;8.40;2.88;;;-1.20;99.90;;;;;;5024611;28;20045;-85
2022/04/02 02:48:31;;;;;;;8.82;3.22;;;-1.20;99.90;;;;;;5032692;28;20040;-85
2022/04/02 02:50:57;;;;;;;8.88;3.00;;;-1.30;99.90;;;;;;5058258;28;20079;-85
2022/04/02 02:53:23;;;;;;;8.00;3.03;;;-0.20;99.90;;;;;;5032099;28;20160;-84
2022/04/02 02:55:50;;;;;;;6.88;2.97;;;-1.30;99.90;;;;;;5032419;28;20131;-84
2022/04/02 02:58:15;;;;;;;7.03;2.60;;;-1.30;99.90;;;;;;5052255;28;20051;-84
2022/04/02 03:00:42;;;;;;;7.88;2.80;;;-1.30;99.90;;;;;;5061620;28;20053;-84
2022/04/02 03:03:09;;;;;;;11.75;2.95;;;-1.40;99.90;;;;;;5016548;28;20128;-84
2022/04/02 03:05:35;;;;;;;6.90;2.85;;;-1.40;99.90;;;;;;5046045;28;20473;-84
2022/04/02 03:08:03;;;;;;;9.88;2.58;;;-1.40;99.90;;;;;;5047097;28;20427;-83
2022/04/02 03:10:30;;;;;;;5.90;2.67;;;-1.40;99.90;;;;;;5018241;28;20484;-83
2022/04/02 03:12:59;;;;;;;6.82;2.60;;;-1.40;99.90;;;;;;5023142;28;20041;-83
2022/04/02 03:15:25;;;;;;;9.43;2.72;;;-1.40;99.90;;;;;;5046016;28;20589;-83
2022/04/02 03:17:52;;;;;;;12.93;2.97;;;-0.40;99.90;;;;;;5043176;28;20072;-83
2022/04/02 03:20:20;;;;;;;6.85;2.42;;;-1.50;99.90;;;;;;5029749;28;20048;-83
2022/04/02 03:22:48;;;;;;;11.18;2.70;;;-1.50;99.90;;;;;;5062035;28;20411;-82
2022/04/02 03:25:18;;;;;;;7.00;2.60;;;-1.50;99.90;;;;;;5054206;28;20040;-82
2022/04/02 03:27:46;;;;;;;8.57;2.53;;;-1.50;99.90;;;;;;5060250;28;20449;-82
2022/04/02 03:30:15;;;;;;;9.10;2.58;;;-1.50;99.90;;;;;;5032328;28;20071;-82
2022/04/02 03:32:41;;;;;;;7.65;2.13;;;-1.50;99.90;;;;;;5045007;28;20139;-82
2022/04/02 03:35:08;;;;;;;8.35;2.50;;;-1.50;99.90;;;;;;5029864;28;20072;-82
2022/04/02 03:37:38;;;;;;;7.82;2.58;;;-1.60;99.90;;;;;;5034271;28;20144;-82
2022/04/02 03:40:07;;;;;;;6.55;2.30;;;-1.60;99.90;;;;;;5067715;28;20048;-82
2022/04/02 03:42:34;;;;;;;8.15;2.00;;;-1.60;99.90;;;;;;5063151;28;20120;-81
2022/04/02 03:45:04;;;;;;;5.40;2.10;;;-1.60;99.90;;;;;;5027195;28;20119;-81
2022/04/02 03:47:30;;;;;;;8.02;2.17;;;-1.70;99.90;;;;;;5047481;28;20063;-81
2022/04/02 03:49:56;;;;;;;6.78;2.00;;;-1.70;99.90;;;;;;5044727;28;20460;-81
2022/04/02 03:52:22;;;;;;;5.50;1.58;;;-1.70;99.90;;;;;;5050835;28;20043;-81
2022/04/02 03:54:47;;;;;;;14.27;1.77;;;-1.70;99.90;;;;;;5034781;28;20048;-82
2022/04/02 03:57:14;;;;;;;5.75;1.48;;;-1.60;99.90;;;;;;5055295;28;20119;-81
2022/04/02 03:59:41;;;;;;;6.07;1.42;;;-1.50;99.90;;;;;;5048967;28;20045;-81
2022/04/02 04:02:08;;;;;;;4.55;1.60;;;-1.50;99.90;;;;;;5048977;28;20044;-81
2022/04/02 04:04:35;;;;;;;4.60;1.50;;;-1.40;99.90;;;;;;5026955;28;20125;-81
2022/04/02 04:07:02;;;;;;;3.13;1.35;;;-1.40;99.90;;;;;;5030413;28;20424;-78
2022/04/02 04:09:28;;;;;;;5.85;1.45;;;-1.40;99.90;;;;;;5047793;28;20417;-78
2022/04/02 04:11:54;;;;;;;4.07;1.48;;;-0.80;99.90;;;;;;5032541;28;20112;-78
2022/04/02 04:14:20;;;;;;;4.45;1.30;;;-1.40;99.90;;;;;;5017887;28;20052;-78
2022/04/02 04:16:46;;;;;;;5.40;1.38;;;-1.40;99.90;;;;;;5045330;28;20050;-78
2022/04/02 04:19:13;;;;;;;3.20;1.05;;;-1.40;99.90;;;;;;5034719;28;20056;-78
2022/04/02 04:21:39;;;;;;;6.57;1.30;;;-1.40;99.90;;;;;;5059045;28;20497;-79
2022/04/02 04:24:06;;;;;;;5.07;1.48;;;-1.40;99.90;;;;;;5046220;28;20053;-78
2022/04/02 04:26:32;;;;;;;5.43;1.50;;;-1.40;99.90;;;;;;5091945;28;20067;-79
2022/04/02 04:28:58;;;;;;;4.40;1.88;;;-1.40;99.90;;;;;;5074468;28;20017;-78
2022/04/02 04:31:24;;;;;;;11.93;1.80;;;-1.40;99.90;;;;;;5051513;28;20133;-79
2022/04/02 04:33:50;;;;;;;3.55;1.38;;;-1.30;99.90;;;;;;5059392;28;20106;-78
2022/04/02 04:36:18;;;;;;;6.43;1.70;;;-1.30;99.90;;;;;;5043231;28;20037;-78
2022/04/02 04:38:45;;;;;;;7.50;1.60;;;-1.30;99.90;;;;;;5075142;28;20033;-78
2022/04/02 04:41:11;;;;;;;3.35;1.23;;;-1.20;99.90;;;;;;5065840;28;20105;-79
2022/04/02 04:43:37;;;;;;;6.18;1.48;;;-1.30;99.90;;;;;;5062277;28;20040;-79
2022/04/02 04:46:03;;;;;;;5.13;1.35;;;-1.30;99.90;;;;;;5047799;28;20791;-80
2022/04/02 04:48:29;;;;;;;5.80;1.65;;;-1.20;99.90;;;;;;5035932;28;20119;-80
2022/04/02 04:50:55;;;;;;;5.18;1.20;;;-1.20;99.90;;;;;;5058035;28;20676;-80
2022/04/02 04:53:21;;;;;;;5.03;1.42;;;-1.10;99.90;;;;;;5065864;28;20405;-80
2022/04/02 04:55:47;;;;;;;5.30;1.50;;;-1.00;99.90;;;;;;5049975;28;20489;-80
2022/04/02 04:58:13;;;;;;;4.57;1.48;;;-0.90;99.90;;;;;;5061894;28;20099;-80
2022/04/02 05:00:40;;;;;;;7.28;1.83;;;-0.80;99.90;;;;;;5043682;28;20169;-80
2022/04/02 05:03:08;;;;;;;5.28;1.52;;;-0.60;99.90;;;;;;5040324;28;20044;-80
2022/04/02 05:05:34;;;;;;;6.22;1.70;;;-0.60;99.90;;;;;;5027441;28;20124;-80
2022/04/02 05:08:01;;;;;;;4.53;1.50;;;-0.50;99.90;;;;;;5030278;28;21124;-80
2022/04/02 05:10:27;;;;;;;4.82;1.42;;;-0.40;99.90;;;;;;5043278;28;20043;-79
2022/04/02 05:12:54;;;;;;;9.00;2.28;;;-0.40;99.90;;;;;;5044456;28;20036;-79
2022/04/02 05:15:19;;;;;;;8.00;1.70;;;-0.40;99.90;;;;;;5046653;28;20041;-79
2022/04/02 05:17:45;;;;;;;4.75;1.45;;;-0.30;99.90;;;;;;5045636;28;20504;-79
2022/04/02 05:20:14;;;;;;;6.80;1.63;;;-0.30;99.90;;;;;;5032878;28;20139;-80
2022/04/02 05:22:41;;;;;;;5.25;1.80;;;-0.30;99.90;;;;;;5069305;28;20468;-79
2022/04/02 05:25:07;;;;;;;4.50;1.40;;;-0.30;99.90;;;;;;5067035;28;20044;-80
2022/04/02 05:27:33;;;;;;;5.72;1.50;;;-0.30;99.90;;;;;;5046368;28;20055;-79
2022/04/02 05:30:00;;;;;;;6.30;1.75;;;-0.30;99.90;;;;;;5040549;28;20501;-80
2022/04/02 05:32:36;;;;;;;4.22;1.52;;;-0.30;99.90;;;;;;5022534;28;20044;-79
2022/04/02 05:35:02;;;;;;;4.90;1.90;;;-0.20;99.90;;;;;;5033610;28;20033;-79
2022/04/02 05:37:28;;;;;;;4.75;1.73;;;-0.20;99.90;;;;;;5018005;28;20105;-80
2022/04/02 05:39:54;;;;;;;7.65;1.70;;;-0.20;99.90;;;;;;5064492;28;20674;-79
2022/04/02 05:42:21;;;;;;;7.65;1.80;;;-0.10;99.90;;;;;;5046166;28;20508;-78
2022/04/02 05:44:47;;;;;;;5.68;1.55;;;0.00;99.90;;;;;;5067708;28;20101;-80
2022/04/02 05:47:12;;;;;;;5.57;1.40;;;0.00;99.90;;;;;;5050113;28;20412;-80
2022/04/02 05:49:39;;;;;;;7.05;1.60;;;0.40;99.90;;;;;;5036968;28;20056;-80
2022/04/02 05:52:05;;;;;;;4.43;1.45;;;1.00;99.90;;;;;;5048836;28;20393;-80
2022/04/02 05:54:34;;;;;;;5.13;1.55;;;1.50;99.90;;;;;;5072909;28;20258;-80
2022/04/02 05:57:04;;;;;;;6.10;1.60;;;1.90;99.90;;;;;;5051110;28;20044;-85
2022/04/02 05:59:34;;;;;;;8.90;1.95;;;2.30;99.90;;;;;;5071724;28;20577;-86
2022/04/02 06:02:04;;;;;;;3.53;1.48;;;2.80;99.90;;;;;;5057890;28;20067;-84
2022/04/02 06:04:34;;;;;;;7.85;1.65;;;2.00;99.90;;;;;;5065532;28;20044;-85
2022/04/02 06:06:59;;;;;;;4.32;1.52;;;1.80;99.90;;;;;;5055303;28;20063;-85
2022/04/02 06:09:25;;;;;;;4.05;1.60;;;1.60;99.90;;;;;;5036395;28;20043;-85
2022/04/02 06:11:51;;;;;;;5.13;1.67;;;1.50;99.90;;;;;;5056671;28;20072;-87
2022/04/02 06:14:17;;;;;;;5.40;1.60;;;1.50;99.90;;;;;;5066443;28;20048;-87
2022/04/02 06:16:43;;;;;;;5.40;1.98;;;1.40;99.90;;;;;;5090184;28;20029;-87
2022/04/02 06:19:10;;;;;;;5.80;1.92;;;1.40;99.90;;;;;;5077187;28;20048;-87
2022/04/02 06:21:36;;;;;;;6.25;2.22;;;1.40;99.90;;;;;;5075282;28;20078;-87
2022/04/02 06:24:05;;;;;;;3.72;1.58;;;2.50;99.90;;;;;;5059773;23;20534;-69
2022/04/02 06:26:31;;;;;;;5.45;1.85;;;1.30;99.90;;;;;;5014869;28;20037;-69
2022/04/02 06:28:59;;;;;;;3.53;1.50;;;1.40;99.90;;;;;;4991582;28;20466;-69
2022/04/02 06:31:24;;;;;;;10.68;1.85;;;1.40;99.90;;;;;;5007428;28;20075;-69
2022/04/02 06:33:50;;;;;;;7.03;2.10;;;1.30;99.90;;;;;;5010767;28;20435;-68
2022/04/02 06:36:16;;;;;;;10.07;2.20;;;1.30;99.90;;;;;;5031982;28;20090;-69
2022/04/02 06:38:42;;;;;;;5.72;1.85;;;1.50;99.90;;;;;;5029864;28;20056;-69
2022/04/02 06:41:08;;;;;;;9.02;2.42;;;1.40;99.90;;;;;;5021075;28;20124;-69
2022/04/02 06:43:33;;;;;;;6.85;2.13;;;1.40;99.90;;;;;;5028857;28;20144;-69
2022/04/02 06:45:59;;;;;;;7.55;2.22;;;1.50;99.90;;;;;;5004627;28;20068;-69
2022/04/02 06:48:25;;;;;;;5.82;2.13;;;1.50;99.90;;;;;;5021373;28;20061;-69
2022/04/02 06:50:52;;;;;;;6.32;1.98;;;1.60;99.90;;;;;;5025847;28;20044;-69
2022/04/02 06:53:17;;;;;;;6.38;2.20;;;1.60;99.90;;;;;;5031055;28;20052;-69
2022/04/02 06:55:43;;;;;;;9.27;2.70;;;1.70;99.90;;;;;;5025695;28;20135;-69
2022/04/02 06:58:32;;;;;;;6.45;1.92;;;1.70;99.90;;;;;;5025613;28;20701;-69
2022/04/02 07:00:58;;;;;;;6.53;2.28;;;1.70;99.90;;;;;;5022841;28;20075;-69
2022/04/02 07:03:24;;;;;;;5.25;1.88;;;1.90;99.90;;;;;;5024997;28;20135;-70
2022/04/02 07:05:50;;;;;;;6.43;2.17;;;2.20;99.90;;;;;;5023426;28;20355;-69
2022/04/02 07:08:16;;;;;;;8.10;2.40;;;2.30;99.90;;;;;;5022768;28;20477;-69
2022/04/02 07:10:41;;;;;;;6.55;1.80;;;2.40;99.90;;;;;;5017789;28;20445;-69
2022/04/02 07:13:07;;;;;;;5.53;1.98;;;2.30;99.90;;;;;;5042308;28;20037;-70
2022/04/02 07:15:33;;;;;;;5.38;2.10;;;2.40;99.90;;;;;;5005327;28;20036;-70
2022/04/02 07:18:06;;;;;;;5.97;2.22;;;2.30;99.90;;;;;;5022211;28;20386;-70
2022/04/02 07:20:35;;;;;;;8.95;2.10;;;2.30;99.90;;;;;;5017545;28;20040;-69
2022/04/02 07:23:09;;;;;;;5.07;2.00;;;2.30;99.90;;;;;;5031497;28;20045;-70
2022/04/02 07:25:39;;;;;;;7.65;2.13;;;2.20;99.90;;;;;;5032911;28;20131;-69
2022/04/02 07:28:05;;;;;;;7.05;2.40;;;2.20;99.90;;;;;;5022235;28;20033;-70
2022/04/02 07:30:33;;;;;;;6.65;2.05;;;2.20;99.90;;;;;;5001754;28;20442;-69
2022/04/02 07:32:58;;;;;;;5.78;1.98;;;2.10;99.90;;;;;;5016543;28;20049;-71
2022/04/02 07:35:25;;;;;;;8.07;2.35;;;2.00;99.90;;;;;;5015603;28;20068;-71
2022/04/02 07:38:16;;;;;;;9.55;2.30;;;2.00;99.90;;;;;;4998221;28;20052;-71
2022/04/02 07:41:04;;;;;;;5.28;2.17;;;1.90;99.90;;;;;;5021555;28;20044;-70
2022/04/02 07:44:11;;;;;;;6.82;2.67;;;1.70;99.90;;;;;;5034206;28;20045;-71
2022/04/02 07:46:43;;;;;;;7.13;1.90;;;1.70;99.90;;;;;;4923341;28;20407;-71
2022/04/02 07:49:12;;;;;;;5.25;1.90;;;1.70;99.90;;;;;;4915688;28;20102;-70
2022/04/02 07:51:39;;;;;;;6.90;2.10;;;1.60;99.90;;;;;;4984418;28;20068;-69
2022/04/02 07:54:08;;;;;;;6.70;1.83;;;1.60;99.90;;;;;;5000034;28;20094;-70
2022/04/02 07:56:38;;;;;;;5.55;1.92;;;1.60;99.90;;;;;;5029630;28;20056;-71
2022/04/02 07:59:09;;;;;;;7.57;1.80;;;1.70;99.90;;;;;;5014063;28;20041;-70
2022/04/02 08:01:36;;;;;;;7.03;1.90;;;1.70;99.90;;;;;;5029139;28;20088;-70
2022/04/02 08:04:05;;;;;;;5.97;1.65;;;0.90;99.90;;;;;;5005073;28;20041;-70
2022/04/02 08:06:37;;;;;;;5.82;1.83;;;1.70;99.90;;;;;;5018995;28;20135;-70
2022/04/02 08:09:03;;;;;;;5.97;1.85;;;1.80;99.90;;;;;;5000708;28;20041;-70
2022/04/02 08:11:29;;;;;;;5.07;1.52;;;1.90;99.90;;;;;;5013032;28;20041;-70
2022/04/02 08:13:57;;;;;;;6.63;2.47;;;3.00;99.90;;;;;;5025788;28;20146;-70
2022/04/02 08:16:23;;;;;;;4.95;1.48;;;2.30;99.90;;;;;;5010108;28;20048;-70
2022/04/02 08:18:49;;;;;;;5.55;1.63;;;2.50;99.90;;;;;;5020507;28;20040;-70
2022/04/02 08:21:15;;;;;;;6.65;1.42;;;2.90;99.90;;;;;;5020671;28;20045;-70
2022/04/02 08:23:41;;;;;;;3.55;1.40;;;3.20;99.90;;;;;;5039694;28;21099;-69
2022/04/02 08:26:45;;;;;;;2.53;1.08;;;3.50;99.90;;;;;;5031068;28;20062;-70
2022/04/02 08:29:17;;;;;;;6.10;1.40;;;3.80;99.90;;;;;;5022952;28;20514;-70
2022/04/02 08:32:11;;;;;;;6.10;1.40;;;4.20;99.90;;;;;;5026161;28;20049;-70
2022/04/02 08:34:40;;;;;;;4.40;1.40;;;4.20;99.90;;;;;;5021029;28;20081;-70
2022/04/02 08:37:30;;;;;;;5.57;1.75;;;4.50;99.90;;;;;;5043925;28;20497;-69
2022/04/02 08:40:08;;;;;;;6.25;1.67;;;4.70;99.90;;;;;;5010475;28;20103;-69
2022/04/02 08:42:59;;;;;;;6.72;1.80;;;5.00;99.90;;;;;;5049174;28;20045;-69
2022/04/02 08:45:39;;;;;;;4.70;1.20;;;5.20;99.90;;;;;;5020039;28;20052;-69
2022/04/02 08:48:23;;;;;;;7.95;1.27;;;5.40;99.90;;;;;;5047024;28;20068;-69
2022/04/02 08:51:10;;;;;;;5.82;1.50;;;5.60;99.90;;;;;;5036871;28;20079;-69
2022/04/02 08:54:04;;;;;;;4.15;1.10;;;5.80;99.90;;;;;;5042164;28;20084;-68
2022/04/02 08:56:34;;;;;;;5.00;1.60;;;6.10;99.90;;;;;;5037021;28;20057;-69
2022/04/02 08:59:04;;;;;;;4.82;1.25;;;6.20;99.90;;;;;;5006467;28;20352;-68
2022/04/02 09:01:39;;;;;;;4.60;1.30;;;6.40;99.90;;;;;;5020612;28;20110;-69
2022/04/02 09:04:27;;;;;;;4.57;1.25;;;6.70;99.90;;;;;;5005071;28;20219;-69
2022/04/02 09:07:05;;;;;;;4.53;1.02;;;6.80;99.90;;;;;;5002702;28;20055;-69
2022/04/02 09:09:56;;;;;;;5.05;1.10;;;6.50;99.90;;;;;;5018061;28;20084;-70
2022/04/02 09:12:35;;;;;;;6.47;1.27;;;6.10;99.90;;;;;;5030497;28;20049;-70
2022/04/02 09:15:12;;;;;;;5.70;1.65;;;5.70;99.90;;;;;;5039955;28;20678;-71
2022/04/02 09:18:02;;;;;;;8.52;1.73;;;5.30;99.90;;;;;;5009677;28;20040;-70
2022/04/02 09:20:47;;;;;;;3.20;1.00;;;5.00;99.90;;;;;;5017485;28;20417;-70
2022/04/02 09:23:34;;;;;;;4.00;1.20;;;4.90;99.90;;;;;;5022451;28;20045;-70
2022/04/02 09:26:19;;;;;;;6.82;1.48;;;4.70;99.90;;;;;;5022210;28;20056;-69
2022/04/02 09:29:16;;;;;;;4.80;1.25;;;5.00;99.90;;;;;;5047057;28;20041;-69
2022/04/02 09:31:54;;;;;;;4.95;1.20;;;5.60;99.90;;;;;;5041858;28;20528;-70
2022/04/02 09:34:43;;;;;;;5.45;1.30;;;6.20;99.90;;;;;;5027729;28;20041;-69
2022/04/02 09:37:54;;;;;;;2.92;0.88;;;6.40;99.60;;;;;;5047517;28;20120;-69
2022/04/02 09:40:33;;;;;;;5.22;1.50;;;6.70;96.60;;;;;;5016854;28;20056;-68
2022/04/02 09:43:07;;;;;;;5.93;1.23;;;6.90;98.40;;;;;;5041828;28;20052;-68
2022/04/02 09:45:50;;;;;;;4.32;1.27;;;7.00;98.20;;;;;;5024310;28;20124;-68
2022/04/02 09:48:25;;;;;;;3.97;1.10;;;7.10;95.80;;;;;;5024221;28;20063;-68
2022/04/02 09:50:58;;;;;;;4.40;1.23;;;7.00;94.60;;;;;;5039734;28;20460;-68
2022/04/02 09:53:26;;;;;;;3.90;1.13;;;7.00;90.50;;;;;;5005677;28;20045;-68
2022/04/02 09:56:01;;;;;;;4.47;1.15;;;7.00;91.20;;;;;;4990226;28;20045;-69
2022/04/02 09:58:44;;;;;;;3.85;1.17;;;7.00;91.30;;;;;;5023376;28;20048;-69
2022/04/02 10:01:38;;;;;;;3.65;0.95;;;7.10;92.80;;;;;;5015750;28;20584;-69
2022/04/02 10:04:19;;;;;;;6.25;0.90;;;7.00;94.00;;;;;;5020184;28;20638;-69
2022/04/02 10:06:49;;;;;;;4.28;1.38;;;6.60;93.40;;;;;;5003004;28;20052;-69
2022/04/02 10:09:18;;;;;;;3.60;1.10;;;6.40;93.20;;;;;;5020893;28;20701;-69
2022/04/02 10:11:52;;;;;;;5.30;1.02;;;6.10;94.20;;;;;;5018795;28;20052;-69
2022/04/02 10:14:27;;;;;;;5.82;1.00;;;6.10;95.30;;;;;;5033738;28;20077;-69
2022/04/02 10:17:05;;;;;;;3.55;1.25;;;5.80;96.20;;;;;;5025920;28;20080;-68
2022/04/02 10:19:33;;;;;;;3.72;1.33;;;5.70;96.60;;;;;;5021310;28;20405;-69
2022/04/02 10:22:10;;;;;;;3.95;1.10;;;5.60;97.20;;;;;;5026217;28;20441;-68
2022/04/02 10:24:47;;;;;;;5.38;1.30;;;5.50;96.70;;;;;;5008140;28;20445;-68
2022/04/02 10:27:34;;;;;;;3.70;1.33;;;5.40;97.10;;;;;;5045252;28;20419;-70
2022/04/02 10:30:00;;;;;;;4.35;1.27;;;5.60;98.30;;;;;;5026521;28;20087;-70
2022/04/02 10:32:36;;;;;;;5.28;1.02;;;6.10;97.90;;;;;;5026511;28;20183;-68
2022/04/02 10:35:06;;;;;;;3.50;1.02;;;6.60;97.30;;;;;;5023460;28;20072;-68
2022/04/02 10:37:45;;;;;;;6.70;1.23;;;6.50;97.40;;;;;;5025270;28;20041;-68
2022/04/02 10:40:16;;;;;;;7.32;1.33;;;6.70;96.20;;;;;;5022289;28;20045;-70
2022/04/02 10:42:55;;;;;;;4.78;1.10;;;6.60;96.50;;;;;;5018936;28;20045;-70
2022/04/02 10:45:22;;;;;;;3.05;1.20;;;6.50;96.80;;;;;;5018229;28;20080;-70
2022/04/02 10:47:54;;;;;;;5.68;1.20;;;6.30;97.10;;;;;;5024649;28;20185;-72
2022/04/02 10:50:22;;;;;;;3.97;1.25;;;6.20;95.70;;;;;;5007185;28;20049;-72
2022/04/02 10:52:50;;;;;;;3.33;1.08;;;6.00;95.60;;;;;;5031186;28;20047;-72
2022/04/02 10:55:19;;;;;;;4.20;1.10;;;5.80;95.70;;;;;;5038039;28;20037;-71
2022/04/02 10:57:47;;;;;;;2.95;0.95;;;5.70;96.80;;;;;;5007417;28;20091;-72
2022/04/02 11:00:13;;;;;;;4.32;1.20;;;6.30;97.40;;;;;;5016896;28;20040;-71
2022/04/02 11:02:43;;;;;;;4.22;1.38;;;6.20;97.50;;;;;;5009083;28;20059;-70
2022/04/02 11:05:11;;;;;;;4.40;1.50;;;6.30;94.90;;;;;;5022172;28;20493;-70
2022/04/02 11:07:43;;;;;;;1.85;1.05;;;6.50;96.20;;;;;;5020902;28;20060;-70
2022/04/02 11:10:14;;;;;;;3.95;1.10;;;6.50;95.60;;;;;;5016800;28;20055;-70
2022/04/02 11:12:44;;;;;;;2.63;0.90;;;6.70;95.70;;;;;;5021010;28;20048;-69
2022/04/02 11:15:16;;;;;;;4.60;1.20;;;6.50;96.40;;;;;;5033598;28;20394;-70
2022/04/02 11:17:44;;;;;;;5.25;1.40;;;6.50;95.90;;;;;;5010720;28;20182;-69
2022/04/02 11:20:17;;;;;;;4.68;1.10;;;6.60;96.20;;;;;;5019801;28;20535;-69
2022/04/02 11:22:57;;;;;;;6.53;1.20;;;6.80;96.70;;;;;;5027463;28;20076;-69
2022/04/02 11:25:29;;;;;;;8.60;1.40;;;7.00;95.70;;;;;;4990165;28;20054;-70
2022/04/02 11:28:20;;;;;;;4.35;1.25;;;7.10;96.80;;;;;;5000145;28;20596;-70
2022/04/02 11:31:02;;;;;;;4.47;1.05;;;7.30;95.00;;;;;;5016165;28;20057;-70
2022/04/02 11:33:27;;;;;;;5.32;1.10;;;7.40;94.90;;;;;;5005710;28;20046;-70
2022/04/02 11:36:06;;;;;;;5.00;1.00;;;7.20;94.30;;;;;;5025124;28;20435;-70
2022/04/02 11:38:57;;;;;;;5.65;1.10;;;7.10;94.10;;;;;;5008016;28;20136;-70
2022/04/02 11:41:33;;;;;;;3.90;1.13;;;7.20;92.90;;;;;;5005249;28;20465;-70
2022/04/02 11:44:16;;;;;;;4.30;1.00;;;7.20;92.30;;;;;;4989800;28;20045;-71
2022/04/02 11:46:54;;;;;;;4.32;1.20;;;6.90;92.30;;;;;;5025654;28;20037;-68
2022/04/02 11:49:26;;;;;;;4.32;1.15;;;6.50;92.10;;;;;;5024989;28;20160;-68
2022/04/02 11:52:02;;;;;;;4.38;1.02;;;6.40;91.40;;;;;;5025834;28;20117;-70
2022/04/02 11:54:28;;;;;;;4.55;1.13;;;6.50;92.70;;;;;;5024038;28;20080;-72
2022/04/02 11:57:06;;;;;;;4.22;0.98;;;6.70;91.70;;;;;;5005719;28;20510;-70
2022/04/02 11:59:35;;;;;;;7.32;1.20;;;6.70;91.80;;;;;;5005737;28;20045;-72
2022/04/02 12:02:04;;;;;;;3.63;0.98;;;6.60;91.50;;;;;;5024430;28;20049;-71
2022/04/02 12:04:31;;;;;;;4.50;1.20;;;6.50;88.60;;;;;;5003529;28;20088;-70
2022/04/02 12:07:05;;;;;;;6.88;1.48;;;6.30;90.30;;;;;;4985411;28;20323;-70
2022/04/02 12:09:33;;;;;;;5.45;1.20;;;6.30;89.90;;;;;;5000297;28;20445;-70
2022/04/02 12:12:06;;;;;;;3.78;1.00;;;6.50;89.90;;;;;;5001638;28;20120;-70
2022/04/02 12:14:37;;;;;;;3.40;1.00;;;6.80;89.20;;;;;;5000747;28;20494;-71
2022/04/02 12:17:11;;;;;;;3.55;1.25;;;7.00;88.50;;;;;;5000952;28;20069;-71
2022/04/02 12:19:44;;;;;;;3.83;1.17;;;7.10;87.60;;;;;;5017250;28;20041;-71
2022/04/02 12:22:25;;;;;;;2.58;1.10;;;7.20;86.60;;;;;;5002098;28;20075;-71
2022/04/02 12:24:53;;;;;;;3.53;1.20;;;6.90;85.40;;;;;;5002277;28;20072;-72
2022/04/02 12:27:21;;;;;;;5.05;0.93;;;6.80;86.00;;;;;;5023565;28;20462;-71
2022/04/02 12:29:49;;;;;;;3.05;1.00;;;7.00;88.90;;;;;;5023943;28;20087;-71
2022/04/02 12:32:35;;;;;;;5.00;1.05;;;7.10;86.70;;;;;;5008002;28;20079;-71
2022/04/02 12:35:15;;;;;;;4.00;1.15;;;6.90;86.00;;;;;;5040981;28;20094;-71
2022/04/02 12:37:45;;;;;;;10.95;1.88;;;6.70;87.00;;;;;;5026494;28;20064;-70
2022/04/02 12:40:19;;;;;;;4.32;1.08;;;6.50;87.20;;;;;;5043451;28;20042;-72
2022/04/02 12:42:45;;;;;;;1.75;0.93;;;6.30;87.10;;;;;;5015001;28;20053;-71
2022/04/02 12:45:25;;;;;;;2.90;1.27;;;6.40;85.80;;;;;;5020477;28;20048;-71
2022/04/02 12:48:02;;;;;;;6.80;1.10;;;6.30;85.70;;;;;;5025165;28;20044;-70
2022/04/02 12:50:36;;;;;;;2.58;1.02;;;6.50;88.30;;;;;;5044393;28;20109;-72
2022/04/02 12:53:02;;;;;;;5.85;0.95;;;6.70;87.60;;;;;;5016032;28;20466;-71
2022/04/02 12:55:30;;;;;;;2.28;0.75;;;6.90;86.10;;;;;;5021144;28;20556;-73
2022/04/02 12:58:12;;;;;;;5.65;1.02;;;7.10;83.70;;;;;;5035486;28;20445;-68
2022/04/02 13:00:42;;;;;;;4.85;0.88;;;7.10;81.80;;;;;;5041895;28;20044;-70
2022/04/02 13:03:09;;;;;;;4.13;1.10;;;7.00;77.60;;;;;;5018186;28;20038;-70
2022/04/02 13:05:49;;;;;;;2.85;1.20;;;7.00;80.60;;;;;;5042506;28;20585;-72
2022/04/02 13:08:24;;;;;;;4.43;1.00;;;6.90;80.00;;;;;;5024667;28;20102;-68
2022/04/02 13:10:58;;;;;;;4.32;1.10;;;6.90;82.80;;;;;;5050859;28;20037;-71
2022/04/02 13:13:39;;;;;;;4.70;1.08;;;7.00;84.50;;;;;;5012848;28;20131;-71